createdAt,value
2019-02-07T00:00:03.864Z,-0.30
2019-02-07T00:04:58.538Z,-0.40
2019-02-07T00:09:53.204Z,-0.40
2019-02-07T00:14:47.934Z,-0.30
2019-02-07T00:19:42.671Z,-0.30
2019-02-07T00:24:42.956Z,-0.40
2019-02-07T00:29:34.444Z,-0.30
2019-02-07T00:34:29.121Z,-0.30
2019-02-07T00:39:23.727Z,-0.20
2019-02-07T00:44:18.322Z,-0.10
2019-02-07T00:49:12.988Z,0.00
2019-02-07T00:54:07.729Z,0.00
2019-02-07T00:59:02.480Z,0.00
2019-02-07T01:03:57.076Z,0.00
2019-02-07T01:08:51.745Z,0.10
2019-02-07T01:13:46.363Z,0.20
2019-02-07T01:18:41.008Z,0.20
2019-02-07T01:23:35.602Z,0.10
2019-02-07T01:28:30.263Z,0.20
2019-02-07T01:33:25.153Z,0.30
2019-02-07T01:38:19.718Z,0.30
2019-02-07T01:43:14.317Z,0.30
2019-02-07T01:48:08.906Z,0.40
2019-02-07T01:53:03.511Z,0.40
2019-02-07T01:57:58.157Z,0.50
2019-02-07T02:02:52.758Z,0.40
2019-02-07T02:07:47.561Z,0.40
2019-02-07T02:12:42.295Z,0.40
2019-02-07T02:17:36.881Z,0.30
2019-02-07T02:22:31.480Z,0.30
2019-02-07T02:27:26.507Z,0.40
2019-02-07T02:32:21.111Z,0.30
2019-02-07T02:37:15.689Z,0.30
2019-02-07T02:42:10.302Z,0.30
2019-02-07T02:47:05.047Z,0.30
2019-02-07T02:51:59.704Z,0.30
2019-02-07T02:56:54.282Z,0.30
2019-02-07T03:01:50.519Z,0.30
2019-02-07T03:06:46.813Z,0.30
2019-02-07T03:11:43.802Z,0.20
2019-02-07T03:16:38.243Z,0.10
2019-02-07T03:21:37.202Z,0.20
2019-02-07T03:26:42.398Z,0.10
2019-02-07T03:31:41.702Z,0.10
2019-02-07T03:36:37.924Z,0.00
2019-02-07T03:41:34.160Z,0.10
2019-02-07T03:46:45.389Z,0.10
2019-02-07T03:51:57.735Z,0.10
2019-02-07T03:57:05.740Z,0.20
2019-02-07T04:02:17.406Z,0.30
2019-02-07T04:07:16.547Z,0.20
2019-02-07T04:12:18.662Z,0.20
2019-02-07T04:17:15.003Z,0.20
2019-02-07T04:22:09.450Z,0.20
2019-02-07T04:27:17.467Z,0.20
2019-02-07T04:32:28.745Z,0.10
2019-02-07T04:37:30.481Z,0.20
2019-02-07T04:42:42.747Z,0.10
2019-02-07T04:47:41.441Z,0.10
2019-02-07T04:52:53.965Z,0.10
2019-02-07T04:57:56.254Z,0.10
2019-02-07T05:02:50.624Z,0.10
2019-02-07T05:07:52.813Z,0.20
2019-02-07T05:12:49.064Z,0.30
2019-02-07T05:17:57.210Z,0.40
2019-02-07T05:23:09.535Z,0.40
2019-02-07T05:28:05.851Z,0.40
2019-02-07T05:33:02.104Z,0.30
2019-02-07T05:38:03.770Z,0.40
2019-02-07T05:43:00.039Z,0.40
2019-02-07T05:47:59.269Z,0.50
2019-02-07T05:53:11.570Z,0.40
2019-02-07T05:58:10.921Z,0.40
2019-02-07T06:03:10.397Z,0.40
2019-02-07T06:08:09.473Z,0.40
2019-02-07T06:13:21.651Z,0.40
2019-02-07T06:18:26.830Z,0.40
2019-02-07T06:23:28.640Z,0.40
2019-02-07T06:28:41.037Z,0.40
2019-02-07T06:33:53.429Z,0.40
2019-02-07T06:39:05.869Z,0.50
2019-02-07T06:44:03.168Z,0.50
2019-02-07T06:49:01.886Z,0.60
2019-02-07T06:53:58.131Z,0.60
2019-02-07T06:58:55.086Z,0.70
2019-02-07T07:03:50.418Z,0.70
2019-02-07T07:08:56.316Z,0.70
2019-02-07T07:13:52.596Z,0.70
2019-02-07T07:19:05.056Z,0.70
2019-02-07T07:23:59.412Z,0.70
2019-02-07T07:29:13.976Z,0.70
2019-02-07T07:34:11.615Z,0.90
2019-02-07T07:39:09.143Z,0.90
2019-02-07T07:44:15.512Z,0.90
2019-02-07T07:49:11.719Z,1.00
2019-02-07T07:54:24.562Z,1.10
2019-02-07T07:59:20.774Z,1.20
2019-02-07T08:04:15.245Z,1.10
2019-02-07T08:09:22.710Z,1.20
2019-02-07T08:14:19.007Z,1.30
2019-02-07T08:19:19.234Z,1.60
2019-02-07T08:24:30.627Z,1.60
2019-02-07T08:29:29.583Z,1.70
2019-02-07T08:34:40.376Z,1.70
2019-02-07T08:39:53.325Z,1.80
2019-02-07T08:44:55.137Z,1.90
2019-02-07T08:49:52.481Z,2.00
2019-02-07T08:54:51.301Z,1.90
2019-02-07T08:59:50.008Z,1.90
2019-02-07T09:04:55.721Z,2.30
2019-02-07T09:09:51.961Z,2.30
2019-02-07T09:15:07.051Z,2.50
2019-02-07T09:20:03.385Z,2.30
2019-02-07T09:25:03.295Z,2.30
2019-02-07T09:30:11.739Z,2.30
2019-02-07T09:35:13.804Z,2.40
2019-02-07T09:40:29.137Z,2.30
2019-02-07T09:45:45.519Z,2.40
2019-02-07T09:50:42.393Z,2.20
2019-02-07T09:55:48.107Z,2.40
2019-02-07T10:01:01.070Z,2.40
2019-02-07T10:06:12.692Z,2.40
2019-02-07T10:11:11.980Z,2.80
2019-02-07T10:16:08.262Z,3.10
2019-02-07T10:21:13.312Z,3.00
2019-02-07T10:26:25.820Z,3.20
2019-02-07T10:31:25.572Z,3.10
2019-02-07T10:36:26.809Z,3.20
2019-02-07T10:41:26.290Z,3.30
2019-02-07T10:46:30.154Z,3.40
2019-02-07T10:51:43.825Z,3.40
2019-02-07T10:56:38.668Z,3.70
2019-02-07T11:01:36.483Z,4.20
2019-02-07T11:06:50.957Z,4.20
2019-02-07T11:11:47.140Z,4.40
2019-02-07T11:16:46.214Z,4.10
2019-02-07T11:21:47.095Z,4.00
2019-02-07T11:26:43.321Z,4.00
2019-02-07T11:31:42.208Z,4.00
2019-02-07T11:36:39.020Z,3.80
2019-02-07T11:41:50.154Z,3.70
2019-02-07T11:46:48.858Z,3.80
2019-02-07T11:51:51.371Z,4.00
2019-02-07T11:57:04.063Z,4.10
2019-02-07T12:02:09.070Z,4.00
2019-02-07T12:07:22.252Z,4.00
2019-02-07T12:12:30.745Z,3.90
2019-02-07T12:17:42.891Z,4.00
2019-02-07T12:22:48.091Z,4.00
2019-02-07T12:27:44.869Z,3.90
2019-02-07T12:32:41.123Z,3.80
2019-02-07T12:37:37.445Z,3.50
2019-02-07T12:42:47.945Z,3.60
2019-02-07T12:48:02.313Z,3.50
2019-02-07T12:53:16.017Z,3.50
2019-02-07T12:58:20.095Z,3.30
2019-02-07T13:03:19.700Z,3.20
2019-02-07T13:08:32.737Z,3.20
2019-02-07T13:13:32.530Z,3.40
2019-02-07T13:18:37.416Z,3.30
2019-02-07T13:23:49.923Z,3.30
2019-02-07T13:28:46.599Z,3.20
2019-02-07T13:33:59.493Z,2.90
2019-02-07T13:39:11.815Z,3.00
2019-02-07T13:44:19.304Z,3.20
2019-02-07T13:49:31.947Z,3.30
2019-02-07T13:54:29.635Z,3.40
2019-02-07T13:59:29.002Z,3.40
2019-02-07T14:04:44.249Z,3.40
2019-02-07T14:09:50.201Z,3.30
2019-02-07T14:14:46.749Z,3.40
2019-02-07T14:20:03.725Z,3.20
2019-02-07T14:25:09.722Z,3.10
2019-02-07T14:30:09.468Z,3.00
2019-02-07T14:35:11.301Z,3.10
2019-02-07T14:40:18.261Z,3.10
2019-02-07T14:45:23.745Z,3.10
2019-02-07T14:50:19.805Z,3.10
2019-02-07T14:55:15.201Z,3.20
2019-02-07T15:00:26.242Z,3.20
2019-02-07T15:05:21.401Z,3.10
2019-02-07T15:10:21.278Z,3.10
2019-02-07T15:15:20.470Z,3.20
2019-02-07T15:20:26.103Z,3.20
2019-02-07T15:25:19.906Z,3.30
2019-02-07T15:30:42.826Z,3.30
2019-02-07T15:35:34.747Z,3.40
2019-02-07T15:40:31.238Z,3.50
2019-02-07T15:45:26.915Z,3.50
2019-02-07T15:50:37.852Z,3.50
2019-02-07T15:55:27.937Z,3.40
2019-02-07T16:00:31.026Z,3.40
2019-02-07T16:05:25.974Z,3.40
2019-02-07T16:10:22.495Z,3.40
2019-02-07T16:15:18.178Z,3.60
2019-02-07T16:20:22.040Z,3.70
2019-02-07T16:25:18.386Z,3.70
2019-02-07T16:30:22.371Z,3.70
2019-02-07T16:35:20.571Z,3.60
2019-02-07T16:40:22.427Z,3.50
2019-02-07T16:45:27.024Z,3.70
2019-02-07T16:50:31.514Z,3.50
2019-02-07T16:55:26.703Z,3.40
2019-02-07T17:00:25.877Z,3.50
2019-02-07T17:05:24.256Z,3.60
2019-02-07T17:10:26.365Z,3.70
2019-02-07T17:15:23.675Z,3.70
2019-02-07T17:20:31.066Z,3.70
2019-02-07T17:25:26.539Z,3.70
2019-02-07T17:30:23.063Z,3.80
2019-02-07T17:35:18.743Z,3.90
2019-02-07T17:40:20.444Z,4.00
2019-02-07T17:45:19.582Z,4.20
2019-02-07T17:50:19.637Z,4.20
2019-02-07T17:55:18.390Z,4.30
2019-02-07T18:00:30.484Z,4.30
2019-02-07T18:05:25.140Z,4.30
2019-02-07T18:10:19.984Z,4.40
2019-02-07T18:15:15.004Z,4.40
2019-02-07T18:20:21.728Z,4.50
2019-02-07T18:25:16.756Z,4.70
2019-02-07T18:30:20.591Z,4.90
2019-02-07T18:35:17.084Z,5.00
2019-02-07T18:40:19.100Z,5.20
2019-02-07T18:45:17.981Z,5.20
2019-02-07T18:50:26.184Z,5.30
2019-02-07T18:55:20.849Z,5.30
2019-02-07T19:00:29.099Z,5.40
2019-02-07T19:05:25.040Z,5.60
2019-02-07T19:10:23.472Z,5.40
2019-02-07T19:15:31.105Z,5.40
2019-02-07T19:20:25.706Z,5.30
2019-02-07T19:25:20.704Z,5.20
2019-02-07T19:30:26.558Z,5.20
2019-02-07T19:35:21.215Z,5.30
2019-02-07T19:40:21.069Z,5.30
2019-02-07T19:45:19.644Z,5.30
2019-02-07T19:50:26.976Z,5.30
2019-02-07T19:55:32.928Z,5.40
2019-02-07T20:00:33.740Z,5.30
2019-02-07T20:05:28.742Z,5.40
2019-02-07T20:10:27.139Z,5.40
2019-02-07T20:15:36.174Z,5.30
2019-02-07T20:20:32.076Z,5.10
2019-02-07T20:25:26.920Z,5.10
2019-02-07T20:30:30.762Z,4.90
2019-02-07T20:35:25.634Z,4.80
2019-02-07T20:40:30.997Z,4.90
2019-02-07T20:45:26.791Z,4.80
2019-02-07T20:50:25.588Z,4.80
2019-02-07T20:55:21.099Z,4.80
2019-02-07T21:00:34.098Z,4.90
2019-02-07T21:05:31.373Z,4.90
2019-02-07T21:10:33.055Z,4.80
2019-02-07T21:15:28.087Z,4.80
2019-02-07T21:20:31.718Z,4.80
2019-02-07T21:25:39.673Z,4.90
2019-02-07T21:30:34.934Z,4.90
2019-02-07T21:35:31.575Z,5.00
2019-02-07T21:40:31.087Z,5.10
2019-02-07T21:45:25.964Z,5.00
2019-02-07T21:50:27.100Z,5.10
2019-02-07T21:55:25.533Z,5.10
2019-02-07T22:00:38.861Z,5.00
2019-02-07T22:05:33.674Z,5.20
2019-02-07T22:10:28.480Z,5.30
2019-02-07T22:15:26.899Z,5.30
2019-02-07T22:20:25.364Z,5.30
2019-02-07T22:25:21.263Z,5.30
2019-02-07T22:30:31.385Z,5.20
2019-02-07T22:35:26.033Z,5.10
2019-02-07T22:40:23.622Z,5.10
2019-02-07T22:45:22.079Z,5.10
2019-02-07T22:50:23.907Z,5.10
2019-02-07T22:55:18.991Z,5.00
2019-02-07T23:00:36.072Z,5.00
2019-02-07T23:05:30.659Z,4.80
2019-02-07T23:10:33.510Z,4.70
2019-02-07T23:15:28.759Z,4.60
2019-02-07T23:20:23.467Z,4.60
2019-02-07T23:25:18.049Z,4.50
2019-02-07T23:30:20.982Z,4.50
2019-02-07T23:35:17.094Z,4.50
2019-02-07T23:40:21.089Z,4.40
2019-02-07T23:45:18.934Z,4.30
2019-02-07T23:50:14.831Z,4.40
2019-02-07T23:55:15.509Z,4.40
